Mount Moriah, Missouri
Current Conditions -  °F | °C
As of 11:53 AM on Monday 24 Nov 2014 (Local Time) from KLWD Reporting Station
Overcast Overcast  
Wind Chill: -10°   Ceiling: 2600
Heat Index: -2°   Visibility: 10mi
Dew Point: -7°   Wind: 26mph
Humidity: 69%   Direction: 290°WNW
Pressure: 29.67"   Gusts: 33mph
Location:  40.33°N, 93.8°W
Report Text: KLWD 241753Z AUTO 29023G29KT 10SM OVC026 M02/M07 A2967 RMK AO2 PK WND 29029/1742 SLP056 T10171067 11017 21028 51026
Loading
Personal Weather Stations






























Interactive Weather Map New forecast layout! Learn more

10-Day Weather Forecast

Advertisements
Track Severe Weather on mobile